PWSweather.com
Personal Weather Stations
Station Observations
AC5JC
Greenleaf Peninsula, Waco, Waco, TX 76710

Greenleaf Peninsula, WacoWaco, TX 76710

Lat: 31.565, Lon: -97.198

Elevation: 570

Station Type: Ambient WS-1400IP

http://ac5jc.dyndns.org

High Low Average
Temperature 78.3°F25.7°C 61.2°F16.2°C 70.9°F21.6°C
Dew Point 62.3°F16.8°C 19.0°F-7.2°C 44.4°F6.9°C
Winds 9.7 mph 15.6 kmh Calm Calm 3.0 mph WSW4.8 kmh WSW
Wind Gusts 22.4 mph36.0 kmh -- 8.0 mph12.9 kmh
Humidity 84% 11% 46%
Pressure 29.58 in1001.7 mb 29.21 in989.2 mb -
Precipitation 0.00 in0.0 mm - -
Hour Temp Dew Point Humidity Winds Wind Gusts Pressure Precip Precip Rate Daily Precip Total
12:00 AM 68.7°F20.4°C 59.3°F15.2°C 72% 10.8 mph SSE17.4 kmh SSE 24.8 mph39.9 kmh 29.19 in988.5 mb 0.00 in0.0 mm 0.00 in0.0 mm 0.00 in0.0 mm
12:05 AM 68.6°F20.3°C 59.2°F15.1°C 72% 10.6 mph S17.1 kmh S 19.9 mph32.0 kmh 29.19 in988.5 mb 0.00 in0.0 mm 0.00 in0.0 mm 0.00 in0.0 mm
12:10 AM 68.5°F20.3°C 59.5°F15.3°C 73% 7.4 mph SSW11.9 kmh SSW 17.4 mph28.0 kmh 29.18 in988.1 mb 0.00 in0.0 mm 0.00 in0.0 mm 0.00 in0.0 mm
12:15 AM 68.4°F20.2°C 59.4°F15.2°C 73% 13.6 mph SE21.9 kmh SE 30.0 mph48.3 kmh 29.18 in988.1 mb 0.00 in0.0 mm 0.00 in0.0 mm 0.00 in0.0 mm
12:20 AM 68.4°F20.2°C 59.6°F15.3°C 74% 12.2 mph SSE19.6 kmh SSE 17.4 mph28.0 kmh 29.19 in988.5 mb 0.00 in0.0 mm 0.00 in0.0 mm 0.00 in0.0 mm
12:25 AM 68.2°F20.1°C 59.7°F15.4°C 74% 12.2 mph SSW19.6 kmh SSW 24.8 mph39.9 kmh 29.20 in988.8 mb 0.00 in0.0 mm 0.00 in0.0 mm 0.00 in0.0 mm
12:30 AM 68.1°F20.1°C 60.1°F15.6°C 76% 6.3 mph S10.1 kmh S 15.0 mph24.1 kmh 29.20 in988.8 mb 0.00 in0.0 mm 0.00 in0.0 mm 0.00 in0.0 mm
12:35 AM 68.0°F20.0°C 60.2°F15.7°C 76% 9.6 mph S15.4 kmh S 15.0 mph24.1 kmh 29.20 in988.8 mb 0.00 in0.0 mm 0.00 in0.0 mm 0.00 in0.0 mm
12:40 AM 67.8°F19.9°C 60.3°F15.7°C 77% 5.0 mph S8.0 kmh S 15.0 mph24.1 kmh 29.21 in989.2 mb 0.00 in0.0 mm 0.00 in0.0 mm 0.00 in0.0 mm
12:45 AM 67.6°F19.8°C 60.2°F15.7°C 77% 5.2 mph SW8.4 kmh SW 15.0 mph24.1 kmh 29.21 in989.2 mb 0.00 in0.0 mm 0.00 in0.0 mm 0.00 in0.0 mm
12:50 AM 67.5°F19.7°C 60.4°F15.8°C 78% 5.4 mph SSW8.7 kmh SSW 12.3 mph19.8 kmh 29.21 in989.2 mb 0.00 in0.0 mm 0.00 in0.0 mm 0.00 in0.0 mm
12:55 AM 67.5°F19.7°C 60.8°F16.0°C 79% 4.7 mph S7.6 kmh S 9.8 mph15.8 kmh 29.21 in989.2 mb 0.00 in0.0 mm 0.00 in0.0 mm 0.00 in0.0 mm
01:00 AM 67.4°F19.7°C 60.9°F16.1°C 80% 7.6 mph S12.2 kmh S 15.0 mph24.1 kmh 29.21 in989.2 mb 0.00 in0.0 mm 0.00 in0.0 mm 0.00 in0.0 mm
01:05 AM 67.3°F19.6°C 61.0°F16.1°C 80% 5.3 mph S8.5 kmh S 9.8 mph15.8 kmh 29.21 in989.2 mb 0.00 in0.0 mm 0.00 in0.0 mm 0.00 in0.0 mm
01:10 AM 67.3°F19.6°C 61.3°F16.3°C 81% 5.9 mph S9.5 kmh S 9.8 mph15.8 kmh 29.21 in989.2 mb 0.00 in0.0 mm 0.00 in0.0 mm 0.00 in0.0 mm
01:15 AM 67.3°F19.6°C 61.3°F16.3°C 81% 4.9 mph SSW7.9 kmh SSW 9.8 mph15.8 kmh 29.21 in989.2 mb 0.00 in0.0 mm 0.00 in0.0 mm 0.00 in0.0 mm
01:20 AM 67.3°F19.6°C 61.3°F16.3°C 81% 5.6 mph S9.0 kmh S 12.3 mph19.8 kmh 29.21 in989.2 mb 0.00 in0.0 mm 0.00 in0.0 mm 0.00 in0.0 mm
01:25 AM 67.3°F19.6°C 61.6°F16.4°C 82% 6.6 mph S10.6 kmh S 12.3 mph19.8 kmh 29.22 in989.5 mb 0.00 in0.0 mm 0.00 in0.0 mm 0.00 in0.0 mm
01:30 AM 67.3°F19.6°C 61.6°F16.4°C 82% 4.8 mph S7.7 kmh S 9.8 mph15.8 kmh 29.23 in989.8 mb 0.00 in0.0 mm 0.00 in0.0 mm 0.00 in0.0 mm
01:35 AM 67.3°F19.6°C 61.6°F16.4°C 82% 3.3 mph S5.3 kmh S 7.4 mph11.9 kmh 29.23 in989.8 mb 0.00 in0.0 mm 0.00 in0.0 mm 0.00 in0.0 mm
01:40 AM 67.3°F19.6°C 61.6°F16.4°C 82% 3.5 mph SSW5.6 kmh SSW 7.4 mph11.9 kmh 29.23 in989.8 mb 0.00 in0.0 mm 0.00 in0.0 mm 0.00 in0.0 mm
01:45 AM 67.3°F19.6°C 61.6°F16.4°C 82% 5.7 mph S9.2 kmh S 15.0 mph24.1 kmh 29.22 in989.5 mb 0.00 in0.0 mm 0.00 in0.0 mm 0.00 in0.0 mm
01:50 AM 67.4°F19.7°C 61.7°F16.5°C 82% 4.7 mph SSW7.6 kmh SSW 12.3 mph19.8 kmh 29.22 in989.5 mb 0.00 in0.0 mm 0.00 in0.0 mm 0.00 in0.0 mm
01:55 AM 67.5°F19.7°C 61.8°F16.6°C 82% 5.1 mph S8.2 kmh S 15.0 mph24.1 kmh 29.23 in989.8 mb 0.00 in0.0 mm 0.00 in0.0 mm 0.00 in0.0 mm
02:00 AM 67.5°F19.7°C 61.8°F16.6°C 82% 7.6 mph S12.2 kmh S 17.4 mph28.0 kmh 29.22 in989.5 mb 0.00 in0.0 mm 0.00 in0.0 mm 0.00 in0.0 mm
02:05 AM 67.6°F19.8°C 61.9°F16.6°C 82% 9.1 mph S14.6 kmh S 17.4 mph28.0 kmh 29.21 in989.2 mb 0.00 in0.0 mm 0.00 in0.0 mm 0.00 in0.0 mm
02:10 AM 67.6°F19.8°C 61.9°F16.6°C 82% 6.1 mph S9.8 kmh S 17.4 mph28.0 kmh 29.22 in989.5 mb 0.00 in0.0 mm 0.00 in0.0 mm 0.00 in0.0 mm
02:15 AM 67.6°F19.8°C 61.9°F16.6°C 82% 5.6 mph S9.0 kmh S 12.3 mph19.8 kmh 29.23 in989.8 mb 0.00 in0.0 mm 0.00 in0.0 mm 0.00 in0.0 mm
02:20 AM 67.6°F19.8°C 61.9°F16.6°C 82% 3.8 mph SSW6.1 kmh SSW 9.8 mph15.8 kmh 29.23 in989.8 mb 0.00 in0.0 mm 0.00 in0.0 mm 0.00 in0.0 mm
02:25 AM 67.8°F19.9°C 61.9°F16.6°C 81% 4.1 mph S6.6 kmh S 15.0 mph24.1 kmh 29.23 in989.8 mb 0.00 in0.0 mm 0.00 in0.0 mm 0.00 in0.0 mm
02:30 AM 67.8°F19.9°C 61.7°F16.5°C 81% 3.2 mph SW5.1 kmh SW 4.9 mph7.9 kmh 29.24 in990.2 mb 0.00 in0.0 mm 0.00 in0.0 mm 0.00 in0.0 mm
02:35 AM 67.8°F19.9°C 61.7°F16.5°C 81% 2.5 mph SW4.0 kmh SW 7.4 mph11.9 kmh 29.23 in989.8 mb 0.00 in0.0 mm 0.00 in0.0 mm 0.00 in0.0 mm
02:40 AM 67.8°F19.9°C 61.9°F16.6°C 81% 3.9 mph SW6.3 kmh SW 7.4 mph11.9 kmh 29.24 in990.2 mb 0.00 in0.0 mm 0.00 in0.0 mm 0.00 in0.0 mm
02:45 AM 67.8°F19.9°C 62.1°F16.7°C 82% 5.0 mph S8.0 kmh S 12.3 mph19.8 kmh 29.23 in989.8 mb 0.00 in0.0 mm 0.00 in0.0 mm 0.00 in0.0 mm
02:50 AM 67.8°F19.9°C 62.0°F16.7°C 82% 5.3 mph S8.5 kmh S 15.0 mph24.1 kmh 29.24 in990.2 mb 0.00 in0.0 mm 0.00 in0.0 mm 0.00 in0.0 mm
02:55 AM 67.8°F19.9°C 61.7°F16.5°C 81% 2.8 mph SW4.5 kmh SW 4.9 mph7.9 kmh 29.24 in990.2 mb 0.00 in0.0 mm 0.00 in0.0 mm 0.00 in0.0 mm
03:00 AM 67.8°F19.9°C 61.7°F16.5°C 81% 2.4 mph SSW3.9 kmh SSW 7.4 mph11.9 kmh 29.24 in990.2 mb 0.00 in0.0 mm 0.00 in0.0 mm 0.00 in0.0 mm
03:05 AM 67.8°F19.9°C 61.7°F16.5°C 81% 4.8 mph SW7.7 kmh SW 9.8 mph15.8 kmh 29.24 in990.2 mb 0.00 in0.0 mm 0.00 in0.0 mm 0.00 in0.0 mm
03:10 AM 67.8°F19.9°C 61.7°F16.5°C 81% 4.4 mph SSW7.1 kmh SSW 7.4 mph11.9 kmh 29.25 in990.5 mb 0.00 in0.0 mm 0.00 in0.0 mm 0.00 in0.0 mm
03:15 AM 67.8°F19.9°C 61.7°F16.5°C 81% 3.6 mph S5.8 kmh S 9.8 mph15.8 kmh 29.24 in990.2 mb 0.00 in0.0 mm 0.00 in0.0 mm 0.00 in0.0 mm
03:20 AM 67.8°F19.9°C 61.6°F16.4°C 80% 4.6 mph SSW7.4 kmh SSW 9.8 mph15.8 kmh 29.23 in989.8 mb 0.00 in0.0 mm 0.00 in0.0 mm 0.00 in0.0 mm
03:25 AM 68.0°F20.0°C 61.6°F16.4°C 80% 3.9 mph SSW6.3 kmh SSW 12.3 mph19.8 kmh 29.23 in989.8 mb 0.00 in0.0 mm 0.00 in0.0 mm 0.00 in0.0 mm
03:30 AM 68.0°F20.0°C 61.6°F16.4°C 80% 3.5 mph SW5.6 kmh SW 7.4 mph11.9 kmh 29.23 in989.8 mb 0.00 in0.0 mm 0.00 in0.0 mm 0.00 in0.0 mm
03:35 AM 68.0°F20.0°C 61.6°F16.4°C 80% 4.2 mph SW6.8 kmh SW 7.4 mph11.9 kmh 29.24 in990.2 mb 0.00 in0.0 mm 0.00 in0.0 mm 0.00 in0.0 mm
03:40 AM 68.0°F20.0°C 61.6°F16.4°C 80% 2.6 mph SW4.2 kmh SW 4.9 mph7.9 kmh 29.24 in990.2 mb 0.00 in0.0 mm 0.00 in0.0 mm 0.00 in0.0 mm
03:45 AM 68.0°F20.0°C 61.6°F16.4°C 80% 3.3 mph SW5.3 kmh SW 9.8 mph15.8 kmh 29.24 in990.2 mb 0.00 in0.0 mm 0.00 in0.0 mm 0.00 in0.0 mm
03:50 AM 68.0°F20.0°C 61.6°F16.4°C 80% 3.8 mph SSE6.1 kmh SSE 9.8 mph15.8 kmh 29.23 in989.8 mb 0.00 in0.0 mm 0.00 in0.0 mm 0.00 in0.0 mm
03:55 AM 68.0°F20.0°C 61.6°F16.4°C 80% 1.5 mph WSW2.4 kmh WSW 4.9 mph7.9 kmh 29.24 in990.2 mb 0.00 in0.0 mm 0.00 in0.0 mm 0.00 in0.0 mm
04:00 AM 68.1°F20.1°C 61.7°F16.5°C 80% 1.7 mph SW2.7 kmh SW 7.4 mph11.9 kmh 29.25 in990.5 mb 0.00 in0.0 mm 0.00 in0.0 mm 0.00 in0.0 mm
04:05 AM 68.2°F20.1°C 61.8°F16.6°C 80% 1.8 mph SW2.9 kmh SW 2.5 mph4.0 kmh 29.26 in990.9 mb 0.00 in0.0 mm 0.00 in0.0 mm 0.00 in0.0 mm
04:10 AM 68.2°F20.1°C 61.8°F16.6°C 80% 2.3 mph S3.7 kmh S 4.9 mph7.9 kmh 29.26 in990.9 mb 0.00 in0.0 mm 0.00 in0.0 mm 0.00 in0.0 mm
04:15 AM 68.2°F20.1°C 61.8°F16.6°C 80% 2.6 mph SW4.2 kmh SW 7.4 mph11.9 kmh 29.26 in990.9 mb 0.00 in0.0 mm 0.00 in0.0 mm 0.00 in0.0 mm
04:20 AM 68.2°F20.1°C 61.8°F16.6°C 80% 1.2 mph SSW1.9 kmh SSW 2.5 mph4.0 kmh 29.26 in990.9 mb 0.00 in0.0 mm 0.00 in0.0 mm 0.00 in0.0 mm
04:25 AM 68.2°F20.1°C 61.8°F16.6°C 80% 2.8 mph S4.5 kmh S 9.8 mph15.8 kmh 29.26 in990.9 mb 0.00 in0.0 mm 0.00 in0.0 mm 0.00 in0.0 mm
04:30 AM 68.2°F20.1°C 61.8°F16.6°C 80% 0.6 mph W1.0 kmh W 2.5 mph4.0 kmh 29.27 in991.2 mb 0.00 in0.0 mm 0.00 in0.0 mm 0.00 in0.0 mm
04:35 AM 68.2°F20.1°C 61.8°F16.6°C 80% 0.2 mph WSW0.3 kmh WSW 2.5 mph4.0 kmh 29.29 in991.9 mb 0.00 in0.0 mm 0.00 in0.0 mm 0.00 in0.0 mm
04:40 AM 68.2°F20.1°C 61.8°F16.6°C 80% 2.0 mph S3.2 kmh S 7.4 mph11.9 kmh 29.27 in991.2 mb 0.00 in0.0 mm 0.00 in0.0 mm 0.00 in0.0 mm
04:45 AM 68.2°F20.1°C 61.8°F16.6°C 80% 2.0 mph S3.2 kmh S 4.9 mph7.9 kmh 29.27 in991.2 mb 0.00 in0.0 mm 0.00 in0.0 mm 0.00 in0.0 mm
04:50 AM 68.2°F20.1°C 61.8°F16.6°C 80% 1.0 mph SSW1.6 kmh SSW 4.9 mph7.9 kmh 29.28 in991.5 mb 0.00 in0.0 mm 0.00 in0.0 mm 0.00 in0.0 mm
04:55 AM 68.2°F20.1°C 61.8°F16.6°C 80% 2.2 mph S3.5 kmh S 7.4 mph11.9 kmh 29.28 in991.5 mb 0.00 in0.0 mm 0.00 in0.0 mm 0.00 in0.0 mm
05:00 AM 68.2°F20.1°C 61.8°F16.6°C 80% 2.1 mph SSW3.4 kmh SSW 4.9 mph7.9 kmh 29.27 in991.2 mb 0.00 in0.0 mm 0.00 in0.0 mm 0.00 in0.0 mm
05:05 AM 68.2°F20.1°C 61.8°F16.6°C 80% 3.5 mph S5.6 kmh S 9.8 mph15.8 kmh 29.27 in991.2 mb 0.00 in0.0 mm 0.00 in0.0 mm 0.00 in0.0 mm
05:10 AM 68.2°F20.1°C 61.9°F16.6°C 80% 2.7 mph S4.3 kmh S 7.4 mph11.9 kmh 29.26 in990.9 mb 0.00 in0.0 mm 0.00 in0.0 mm 0.00 in0.0 mm
05:15 AM 68.0°F20.0°C 62.0°F16.7°C 81% 1.3 mph SW2.1 kmh SW 2.5 mph4.0 kmh 29.26 in990.9 mb 0.00 in0.0 mm 0.00 in0.0 mm 0.00 in0.0 mm
05:20 AM 68.0°F20.0°C 62.3°F16.8°C 82% 3.5 mph S5.6 kmh S 9.8 mph15.8 kmh 29.25 in990.5 mb 0.00 in0.0 mm 0.00 in0.0 mm 0.00 in0.0 mm
05:25 AM 67.8°F19.9°C 62.1°F16.7°C 82% 2.1 mph SSW3.4 kmh SSW 7.4 mph11.9 kmh 29.25 in990.5 mb 0.00 in0.0 mm 0.00 in0.0 mm 0.00 in0.0 mm
05:30 AM 67.7°F19.8°C 62.0°F16.7°C 82% 2.9 mph SW4.7 kmh SW 7.4 mph11.9 kmh 29.25 in990.5 mb 0.00 in0.0 mm 0.00 in0.0 mm 0.00 in0.0 mm
05:35 AM 67.6°F19.8°C 62.1°F16.7°C 83% 1.5 mph SW2.4 kmh SW 4.9 mph7.9 kmh 29.26 in990.9 mb 0.00 in0.0 mm 0.00 in0.0 mm 0.00 in0.0 mm
05:40 AM 67.5°F19.7°C 62.1°F16.7°C 83% 4.7 mph S7.6 kmh S 12.3 mph19.8 kmh 29.25 in990.5 mb 0.00 in0.0 mm 0.00 in0.0 mm 0.00 in0.0 mm
05:45 AM 67.4°F19.7°C 62.1°F16.7°C 83% 4.8 mph S7.7 kmh S 9.8 mph15.8 kmh 29.25 in990.5 mb 0.00 in0.0 mm 0.00 in0.0 mm 0.00 in0.0 mm
05:50 AM 67.3°F19.6°C 62.0°F16.7°C 83% 2.4 mph SW3.9 kmh SW 4.9 mph7.9 kmh 29.26 in990.9 mb 0.00 in0.0 mm 0.00 in0.0 mm 0.00 in0.0 mm
05:55 AM 67.3°F19.6°C 62.0°F16.7°C 83% 1.3 mph WSW2.1 kmh WSW 4.9 mph7.9 kmh 29.26 in990.9 mb 0.00 in0.0 mm 0.00 in0.0 mm 0.00 in0.0 mm
06:00 AM 67.3°F19.6°C 62.0°F16.7°C 83% 3.0 mph S4.8 kmh S 7.4 mph11.9 kmh 29.26 in990.9 mb 0.00 in0.0 mm 0.00 in0.0 mm 0.00 in0.0 mm
06:05 AM 67.3°F19.6°C 62.0°F16.7°C 83% 3.7 mph S6.0 kmh S 9.8 mph15.8 kmh 29.26 in990.9 mb 0.00 in0.0 mm 0.00 in0.0 mm 0.00 in0.0 mm
06:10 AM 67.5°F19.7°C 61.9°F16.6°C 82% 4.4 mph S7.1 kmh S 12.3 mph19.8 kmh 29.27 in991.2 mb 0.00 in0.0 mm 0.00 in0.0 mm 0.00 in0.0 mm
06:15 AM 67.5°F19.7°C 61.8°F16.6°C 82% 2.1 mph S3.4 kmh S 9.8 mph15.8 kmh 29.26 in990.9 mb 0.00 in0.0 mm 0.00 in0.0 mm 0.00 in0.0 mm
06:20 AM 67.6°F19.8°C 61.8°F16.6°C 82% 5.4 mph S8.7 kmh S 15.0 mph24.1 kmh 29.27 in991.2 mb 0.00 in0.0 mm 0.00 in0.0 mm 0.00 in0.0 mm
06:25 AM 67.6°F19.8°C 61.8°F16.6°C 82% 3.2 mph SSW5.1 kmh SSW 9.8 mph15.8 kmh 29.27 in991.2 mb 0.00 in0.0 mm 0.00 in0.0 mm 0.00 in0.0 mm
06:30 AM 67.6°F19.8°C 61.9°F16.6°C 82% 1.9 mph SW3.1 kmh SW 7.4 mph11.9 kmh 29.28 in991.5 mb 0.00 in0.0 mm 0.00 in0.0 mm 0.00 in0.0 mm
06:35 AM 67.6°F19.8°C 61.9°F16.6°C 82% 2.5 mph S4.0 kmh S 7.4 mph11.9 kmh 29.28 in991.5 mb 0.00 in0.0 mm 0.00 in0.0 mm 0.00 in0.0 mm
06:40 AM 67.6°F19.8°C 61.9°F16.6°C 82% 2.8 mph SW4.5 kmh SW 7.4 mph11.9 kmh 29.29 in991.9 mb 0.00 in0.0 mm 0.00 in0.0 mm 0.00 in0.0 mm
06:45 AM 67.6°F19.8°C 61.9°F16.6°C 82% 1.1 mph WNW1.8 kmh WNW 7.4 mph11.9 kmh 29.31 in992.6 mb 0.00 in0.0 mm 0.00 in0.0 mm 0.00 in0.0 mm
06:50 AM 67.6°F19.8°C 61.9°F16.6°C 82% 2.3 mph NW3.7 kmh NW 4.9 mph7.9 kmh 29.34 in993.6 mb 0.00 in0.0 mm 0.00 in0.0 mm 0.00 in0.0 mm
06:55 AM 67.6°F19.8°C 61.8°F16.6°C 82% 1.7 mph WSW2.7 kmh WSW 4.9 mph7.9 kmh 29.33 in993.2 mb 0.00 in0.0 mm 0.00 in0.0 mm 0.00 in0.0 mm
07:00 AM 67.6°F19.8°C 62.0°F16.7°C 82% 3.2 mph S5.1 kmh S 4.9 mph7.9 kmh 29.34 in993.6 mb 0.00 in0.0 mm 0.00 in0.0 mm 0.00 in0.0 mm
07:05 AM 67.6°F19.8°C 62.2°F16.8°C 83% 3.4 mph W5.5 kmh W 7.4 mph11.9 kmh 29.34 in993.6 mb 0.00 in0.0 mm 0.00 in0.0 mm 0.00 in0.0 mm
07:10 AM 67.6°F19.8°C 62.2°F16.8°C 83% 1.7 mph WNW2.7 kmh WNW 7.4 mph11.9 kmh 29.36 in994.2 mb 0.00 in0.0 mm 0.00 in0.0 mm 0.00 in0.0 mm
07:15 AM 67.5°F19.7°C 62.2°F16.8°C 83% 0.1 mph W0.2 kmh W 2.5 mph4.0 kmh 29.36 in994.2 mb 0.00 in0.0 mm 0.00 in0.0 mm 0.00 in0.0 mm
07:20 AM 67.5°F19.7°C 62.1°F16.7°C 83% 0.7 mph SW1.1 kmh SW 2.5 mph4.0 kmh 29.36 in994.2 mb 0.00 in0.0 mm 0.00 in0.0 mm 0.00 in0.0 mm
07:25 AM 67.5°F19.7°C 62.1°F16.7°C 83% 0.1 mph WNW0.2 kmh WNW 2.5 mph4.0 kmh 29.36 in994.2 mb 0.00 in0.0 mm 0.00 in0.0 mm 0.00 in0.0 mm
07:30 AM 67.3°F19.6°C 62.2°F16.8°C 84% 0.1 mph S0.2 kmh S 2.5 mph4.0 kmh 29.35 in993.9 mb 0.00 in0.0 mm 0.00 in0.0 mm 0.00 in0.0 mm
07:35 AM 67.3°F19.6°C 62.1°F16.7°C 84% 0.1 mph SW0.2 kmh SW 2.5 mph4.0 kmh 29.34 in993.6 mb 0.00 in0.0 mm 0.00 in0.0 mm 0.00 in0.0 mm
07:40 AM 67.3°F19.6°C 61.9°F16.6°C 83% 0.2 mph WSW0.3 kmh WSW 2.5 mph4.0 kmh 29.34 in993.6 mb 0.00 in0.0 mm 0.00 in0.0 mm 0.00 in0.0 mm
07:45 AM 67.3°F19.6°C 61.6°F16.4°C 82% 0.4 mph SW0.6 kmh SW 2.5 mph4.0 kmh 29.35 in993.9 mb 0.00 in0.0 mm 0.00 in0.0 mm 0.00 in0.0 mm
07:50 AM 67.4°F19.7°C 61.4°F16.3°C 81% 0.2 mph WSW0.3 kmh WSW 2.5 mph4.0 kmh 29.35 in993.9 mb 0.00 in0.0 mm 0.00 in0.0 mm 0.00 in0.0 mm
07:55 AM 67.5°F19.7°C 61.1°F16.2°C 80% 0.9 mph SSW1.4 kmh SSW 4.9 mph7.9 kmh 29.35 in993.9 mb 0.00 in0.0 mm 0.00 in0.0 mm 0.00 in0.0 mm
08:00 AM 67.5°F19.7°C 60.5°F15.8°C 78% 0.1 mph SW0.2 kmh SW 2.5 mph4.0 kmh 29.35 in993.9 mb 0.00 in0.0 mm 0.00 in0.0 mm 0.00 in0.0 mm
08:05 AM 67.8°F19.9°C 59.9°F15.5°C 76% 0.1 mph WSW0.2 kmh WSW 2.5 mph4.0 kmh 29.36 in994.2 mb 0.00 in0.0 mm 0.00 in0.0 mm 0.00 in0.0 mm
08:10 AM 68.3°F20.2°C 59.9°F15.5°C 75% 0.6 mph WSW1.0 kmh WSW 2.5 mph4.0 kmh 29.36 in994.2 mb 0.00 in0.0 mm 0.00 in0.0 mm 0.00 in0.0 mm
08:15 AM 68.6°F20.3°C 60.0°F15.6°C 74% 0.8 mph SW1.3 kmh SW 2.5 mph4.0 kmh 29.36 in994.2 mb 0.00 in0.0 mm 0.00 in0.0 mm 0.00 in0.0 mm
08:20 AM 69.0°F20.6°C 60.3°F15.7°C 74% 0.4 mph WSW0.6 kmh WSW 2.5 mph4.0 kmh 29.36 in994.2 mb 0.00 in0.0 mm 0.00 in0.0 mm 0.00 in0.0 mm
08:25 AM 69.4°F20.8°C 60.4°F15.8°C 73% 0.7 mph WSW1.1 kmh WSW 2.5 mph4.0 kmh 29.36 in994.2 mb 0.00 in0.0 mm 0.00 in0.0 mm 0.00 in0.0 mm
08:30 AM 69.7°F20.9°C 60.4°F15.8°C 72% 1.0 mph WSW1.6 kmh WSW 2.5 mph4.0 kmh 29.36 in994.2 mb 0.00 in0.0 mm 0.00 in0.0 mm 0.00 in0.0 mm
08:35 AM 69.8°F21.0°C 60.4°F15.8°C 72% 1.0 mph W1.6 kmh W 4.9 mph7.9 kmh 29.37 in994.6 mb 0.00 in0.0 mm 0.00 in0.0 mm 0.00 in0.0 mm
08:40 AM 70.0°F21.1°C 60.5°F15.8°C 72% 0.7 mph WSW1.1 kmh WSW 4.9 mph7.9 kmh 29.37 in994.6 mb 0.00 in0.0 mm 0.00 in0.0 mm 0.00 in0.0 mm
08:45 AM 70.0°F21.1°C 60.2°F15.7°C 71% 1.4 mph WSW2.3 kmh WSW 4.9 mph7.9 kmh 29.37 in994.6 mb 0.00 in0.0 mm 0.00 in0.0 mm 0.00 in0.0 mm
08:50 AM 70.2°F21.2°C 60.2°F15.7°C 71% 1.2 mph WSW1.9 kmh WSW 4.9 mph7.9 kmh 29.37 in994.6 mb 0.00 in0.0 mm 0.00 in0.0 mm 0.00 in0.0 mm
08:55 AM 70.3°F21.3°C 60.0°F15.6°C 70% 2.2 mph WSW3.5 kmh WSW 4.9 mph7.9 kmh 29.37 in994.6 mb 0.00 in0.0 mm 0.00 in0.0 mm 0.00 in0.0 mm
09:00 AM 70.5°F21.4°C 60.1°F15.6°C 70% 2.1 mph SW3.4 kmh SW 4.9 mph7.9 kmh 29.38 in994.9 mb 0.00 in0.0 mm 0.00 in0.0 mm 0.00 in0.0 mm
09:05 AM 70.6°F21.4°C 60.0°F15.6°C 69% 1.8 mph WSW2.9 kmh WSW 4.9 mph7.9 kmh 29.38 in994.9 mb 0.00 in0.0 mm 0.00 in0.0 mm 0.00 in0.0 mm
09:10 AM 70.7°F21.5°C 60.0°F15.6°C 69% 1.0 mph WSW1.6 kmh WSW 4.9 mph7.9 kmh 29.37 in994.6 mb 0.00 in0.0 mm 0.00 in0.0 mm 0.00 in0.0 mm
09:15 AM 70.9°F21.6°C 59.9°F15.5°C 68% 1.3 mph W2.1 kmh W 4.9 mph7.9 kmh 29.38 in994.9 mb 0.00 in0.0 mm 0.00 in0.0 mm 0.00 in0.0 mm
09:20 AM 70.9°F21.6°C 59.0°F15.0°C 66% 3.6 mph WSW5.8 kmh WSW 9.8 mph15.8 kmh 29.38 in994.9 mb 0.00 in0.0 mm 0.00 in0.0 mm 0.00 in0.0 mm
09:25 AM 70.9°F21.6°C 58.0°F14.4°C 64% 3.9 mph NW6.3 kmh NW 7.4 mph11.9 kmh 29.38 in994.9 mb 0.00 in0.0 mm 0.00 in0.0 mm 0.00 in0.0 mm
09:30 AM 70.9°F21.6°C 57.0°F13.9°C 62% 2.9 mph WNW4.7 kmh WNW 4.9 mph7.9 kmh 29.39 in995.3 mb 0.00 in0.0 mm 0.00 in0.0 mm 0.00 in0.0 mm
09:35 AM 70.9°F21.6°C 56.5°F13.6°C 60% 4.5 mph NW7.2 kmh NW 15.0 mph24.1 kmh 29.39 in995.3 mb 0.00 in0.0 mm 0.00 in0.0 mm 0.00 in0.0 mm
09:40 AM 70.9°F21.6°C 55.9°F13.3°C 59% 3.5 mph NW5.6 kmh NW 9.8 mph15.8 kmh 29.39 in995.3 mb 0.00 in0.0 mm 0.00 in0.0 mm 0.00 in0.0 mm
09:45 AM 70.7°F21.5°C 54.3°F12.4°C 56% 4.9 mph WNW7.9 kmh WNW 12.3 mph19.8 kmh 29.39 in995.3 mb 0.00 in0.0 mm 0.00 in0.0 mm 0.00 in0.0 mm
09:50 AM 70.7°F21.5°C 53.8°F12.1°C 55% 3.8 mph NW6.1 kmh NW 9.8 mph15.8 kmh 29.40 in995.6 mb 0.00 in0.0 mm 0.00 in0.0 mm 0.00 in0.0 mm
09:55 AM 70.7°F21.5°C 52.8°F11.6°C 53% 4.7 mph WNW7.6 kmh WNW 7.4 mph11.9 kmh 29.40 in995.6 mb 0.00 in0.0 mm 0.00 in0.0 mm 0.00 in0.0 mm
10:00 AM 70.8°F21.6°C 51.8°F11.0°C 51% 4.5 mph NW7.2 kmh NW 12.3 mph19.8 kmh 29.40 in995.6 mb 0.00 in0.0 mm 0.00 in0.0 mm 0.00 in0.0 mm
10:05 AM 70.9°F21.6°C 50.3°F10.2°C 48% 3.5 mph NW5.6 kmh NW 7.4 mph11.9 kmh 29.40 in995.6 mb 0.00 in0.0 mm 0.00 in0.0 mm 0.00 in0.0 mm
10:10 AM 70.9°F21.6°C 48.3°F9.1°C 45% 3.9 mph NW6.3 kmh NW 7.4 mph11.9 kmh 29.40 in995.6 mb 0.00 in0.0 mm 0.00 in0.0 mm 0.00 in0.0 mm
10:15 AM 70.9°F21.6°C 46.8°F8.2°C 42% 3.1 mph NW5.0 kmh NW 7.4 mph11.9 kmh 29.41 in995.9 mb 0.00 in0.0 mm 0.00 in0.0 mm 0.00 in0.0 mm
10:20 AM 70.9°F21.6°C 45.9°F7.7°C 41% 4.0 mph NW6.4 kmh NW 15.0 mph24.1 kmh 29.41 in995.9 mb 0.00 in0.0 mm 0.00 in0.0 mm 0.00 in0.0 mm
10:25 AM 70.9°F21.6°C 45.4°F7.4°C 40% 5.6 mph NW9.0 kmh NW 12.3 mph19.8 kmh 29.41 in995.9 mb 0.00 in0.0 mm 0.00 in0.0 mm 0.00 in0.0 mm
10:30 AM 70.9°F21.6°C 45.4°F7.4°C 40% 6.1 mph NW9.8 kmh NW 12.3 mph19.8 kmh 29.41 in995.9 mb 0.00 in0.0 mm 0.00 in0.0 mm 0.00 in0.0 mm
10:35 AM 71.0°F21.7°C 45.3°F7.4°C 40% 3.3 mph NNW5.3 kmh NNW 9.8 mph15.8 kmh 29.42 in996.3 mb 0.00 in0.0 mm 0.00 in0.0 mm 0.00 in0.0 mm
10:40 AM 71.1°F21.7°C 44.2°F6.8°C 38% 6.7 mph NW10.8 kmh NW 12.3 mph19.8 kmh 29.42 in996.3 mb 0.00 in0.0 mm 0.00 in0.0 mm 0.00 in0.0 mm
10:45 AM 71.2°F21.8°C 42.6°F5.9°C 36% 5.8 mph NNW9.3 kmh NNW 15.0 mph24.1 kmh 29.42 in996.3 mb 0.00 in0.0 mm 0.00 in0.0 mm 0.00 in0.0 mm
10:50 AM 71.4°F21.9°C 39.8°F4.3°C 32% 4.6 mph N7.4 kmh N 9.8 mph15.8 kmh 29.42 in996.3 mb 0.00 in0.0 mm 0.00 in0.0 mm 0.00 in0.0 mm
10:55 AM 71.6°F22.0°C 37.8°F3.2°C 29% 4.3 mph NNE6.9 kmh NNE 12.3 mph19.8 kmh 29.42 in996.3 mb 0.00 in0.0 mm 0.00 in0.0 mm 0.00 in0.0 mm
11:00 AM 71.9°F22.2°C 38.3°F3.5°C 30% 6.9 mph N11.1 kmh N 15.0 mph24.1 kmh 29.43 in996.6 mb 0.00 in0.0 mm 0.00 in0.0 mm 0.00 in0.0 mm
11:05 AM 72.0°F22.2°C 37.4°F3.0°C 28% 6.5 mph NW10.5 kmh NW 12.3 mph19.8 kmh 29.43 in996.6 mb 0.00 in0.0 mm 0.00 in0.0 mm 0.00 in0.0 mm
11:10 AM 72.1°F22.3°C 37.2°F2.9°C 28% 7.4 mph NNW11.9 kmh NNW 12.3 mph19.8 kmh 29.43 in996.6 mb 0.00 in0.0 mm 0.00 in0.0 mm 0.00 in0.0 mm
11:15 AM 72.2°F22.3°C 37.3°F2.9°C 28% 5.5 mph NW8.9 kmh NW 17.4 mph28.0 kmh 29.43 in996.6 mb 0.00 in0.0 mm 0.00 in0.0 mm 0.00 in0.0 mm
11:20 AM 72.3°F22.4°C 37.4°F3.0°C 28% 9.0 mph NW14.5 kmh NW 17.4 mph28.0 kmh 29.43 in996.6 mb 0.00 in0.0 mm 0.00 in0.0 mm 0.00 in0.0 mm
11:25 AM 72.3°F22.4°C 37.4°F3.0°C 28% 6.5 mph NNW10.5 kmh NNW 12.3 mph19.8 kmh 29.44 in997.0 mb 0.00 in0.0 mm 0.00 in0.0 mm 0.00 in0.0 mm
11:30 AM 72.3°F22.4°C 37.4°F3.0°C 28% 4.6 mph NNW7.4 kmh NNW 7.4 mph11.9 kmh 29.43 in996.6 mb 0.00 in0.0 mm 0.00 in0.0 mm 0.00 in0.0 mm
11:35 AM 72.4°F22.4°C 37.4°F3.0°C 28% 6.1 mph NW9.8 kmh NW 12.3 mph19.8 kmh 29.44 in997.0 mb 0.00 in0.0 mm 0.00 in0.0 mm 0.00 in0.0 mm
11:40 AM 72.5°F22.5°C 37.8°F3.2°C 28% 8.6 mph NNW13.8 kmh NNW 17.4 mph28.0 kmh 29.44 in997.0 mb 0.00 in0.0 mm 0.00 in0.0 mm 0.00 in0.0 mm
11:45 AM 72.6°F22.6°C 37.8°F3.2°C 28% 8.7 mph NW14.0 kmh NW 15.0 mph24.1 kmh 29.44 in997.0 mb 0.00 in0.0 mm 0.00 in0.0 mm 0.00 in0.0 mm
11:50 AM 72.8°F22.7°C 38.2°F3.4°C 28% 4.8 mph NW7.7 kmh NW 12.3 mph19.8 kmh 29.44 in997.0 mb 0.00 in0.0 mm 0.00 in0.0 mm 0.00 in0.0 mm
11:55 AM 73.0°F22.8°C 37.5°F3.1°C 28% 6.1 mph NNW9.8 kmh NNW 12.3 mph19.8 kmh 29.44 in997.0 mb 0.00 in0.0 mm 0.00 in0.0 mm 0.00 in0.0 mm
12:00 PM 73.2°F22.9°C 38.1°F3.4°C 28% 4.3 mph NW6.9 kmh NW 9.8 mph15.8 kmh 29.44 in997.0 mb 0.00 in0.0 mm 0.00 in0.0 mm 0.00 in0.0 mm
12:05 PM 73.5°F23.1°C 37.7°F3.2°C 27% 7.5 mph N12.1 kmh N 17.4 mph28.0 kmh 29.44 in997.0 mb 0.00 in0.0 mm 0.00 in0.0 mm 0.00 in0.0 mm
12:10 PM 73.7°F23.2°C 38.8°F3.8°C 28% 5.5 mph NW8.9 kmh NW 15.0 mph24.1 kmh 29.44 in997.0 mb 0.00 in0.0 mm 0.00 in0.0 mm 0.00 in0.0 mm
12:15 PM 73.9°F23.3°C 38.8°F3.8°C 28% 8.9 mph N14.3 kmh N 15.0 mph24.1 kmh 29.45 in997.3 mb 0.00 in0.0 mm 0.00 in0.0 mm 0.00 in0.0 mm
12:20 PM 74.2°F23.4°C 38.8°F3.8°C 28% 4.5 mph N7.2 kmh N 12.3 mph19.8 kmh 29.45 in997.3 mb 0.00 in0.0 mm 0.00 in0.0 mm 0.00 in0.0 mm
12:25 PM 74.4°F23.6°C 38.2°F3.4°C 27% 6.6 mph NW10.6 kmh NW 15.0 mph24.1 kmh 29.45 in997.3 mb 0.00 in0.0 mm 0.00 in0.0 mm 0.00 in0.0 mm
12:30 PM 74.6°F23.7°C 38.0°F3.3°C 26% 5.8 mph NW9.3 kmh NW 12.3 mph19.8 kmh 29.45 in997.3 mb 0.00 in0.0 mm 0.00 in0.0 mm 0.00 in0.0 mm
12:35 PM 74.8°F23.8°C 37.4°F3.0°C 26% 8.5 mph NW13.7 kmh NW 15.0 mph24.1 kmh 29.45 in997.3 mb 0.00 in0.0 mm 0.00 in0.0 mm 0.00 in0.0 mm
12:40 PM 74.9°F23.8°C 37.4°F3.0°C 26% 4.8 mph NW7.7 kmh NW 12.3 mph19.8 kmh 29.45 in997.3 mb 0.00 in0.0 mm 0.00 in0.0 mm 0.00 in0.0 mm
12:45 PM 75.1°F23.9°C 37.2°F2.9°C 25% 9.7 mph NW15.6 kmh NW 17.4 mph28.0 kmh 29.45 in997.3 mb 0.00 in0.0 mm 0.00 in0.0 mm 0.00 in0.0 mm
12:50 PM 75.2°F24.0°C 36.6°F2.6°C 25% 5.8 mph NW9.3 kmh NW 12.3 mph19.8 kmh 29.45 in997.3 mb 0.00 in0.0 mm 0.00 in0.0 mm 0.00 in0.0 mm
12:55 PM 75.2°F24.0°C 36.3°F2.4°C 24% 6.7 mph NNW10.8 kmh NNW 9.8 mph15.8 kmh 29.45 in997.3 mb 0.00 in0.0 mm 0.00 in0.0 mm 0.00 in0.0 mm
01:00 PM 75.2°F24.0°C 35.9°F2.2°C 24% 8.6 mph N13.8 kmh N 22.4 mph36.0 kmh 29.45 in997.3 mb 0.00 in0.0 mm 0.00 in0.0 mm 0.00 in0.0 mm
01:05 PM 75.3°F24.1°C 36.8°F2.7°C 25% 7.8 mph NNW12.6 kmh NNW 12.3 mph19.8 kmh 29.46 in997.6 mb 0.00 in0.0 mm 0.00 in0.0 mm 0.00 in0.0 mm
01:10 PM 75.4°F24.1°C 36.1°F2.3°C 24% 6.4 mph N10.3 kmh N 9.8 mph15.8 kmh 29.45 in997.3 mb 0.00 in0.0 mm 0.00 in0.0 mm 0.00 in0.0 mm
01:15 PM 75.5°F24.2°C 36.0°F2.2°C 24% 5.3 mph NNW8.5 kmh NNW 9.8 mph15.8 kmh 29.46 in997.6 mb 0.00 in0.0 mm 0.00 in0.0 mm 0.00 in0.0 mm
01:20 PM 75.6°F24.2°C 35.2°F1.8°C 23% 4.7 mph NNW7.6 kmh NNW 15.0 mph24.1 kmh 29.46 in997.6 mb 0.00 in0.0 mm 0.00 in0.0 mm 0.00 in0.0 mm
01:25 PM 75.9°F24.4°C 35.6°F2.0°C 23% 7.8 mph N12.6 kmh N 15.0 mph24.1 kmh 29.46 in997.6 mb 0.00 in0.0 mm 0.00 in0.0 mm 0.00 in0.0 mm
01:30 PM 75.9°F24.4°C 35.4°F1.9°C 23% 5.2 mph NNW8.4 kmh NNW 7.4 mph11.9 kmh 29.46 in997.6 mb 0.00 in0.0 mm 0.00 in0.0 mm 0.00 in0.0 mm
01:35 PM 76.1°F24.5°C 36.1°F2.3°C 24% 3.9 mph NW6.3 kmh NW 9.8 mph15.8 kmh 29.46 in997.6 mb 0.00 in0.0 mm 0.00 in0.0 mm 0.00 in0.0 mm
01:40 PM 76.3°F24.6°C 34.6°F1.4°C 22% 7.6 mph NNW12.2 kmh NNW 15.0 mph24.1 kmh 29.47 in998.0 mb 0.00 in0.0 mm 0.00 in0.0 mm 0.00 in0.0 mm
01:45 PM 76.3°F24.6°C 34.4°F1.3°C 22% 4.1 mph N6.6 kmh N 7.4 mph11.9 kmh 29.47 in998.0 mb 0.00 in0.0 mm 0.00 in0.0 mm 0.00 in0.0 mm
01:50 PM 76.5°F24.7°C 34.2°F1.2°C 22% 5.6 mph NW9.0 kmh NW 12.3 mph19.8 kmh 29.47 in998.0 mb 0.00 in0.0 mm 0.00 in0.0 mm 0.00 in0.0 mm
01:55 PM 76.6°F24.8°C 34.3°F1.3°C 22% 6.0 mph N9.7 kmh N 12.3 mph19.8 kmh 29.46 in997.6 mb 0.00 in0.0 mm 0.00 in0.0 mm 0.00 in0.0 mm
02:00 PM 76.8°F24.9°C 34.5°F1.4°C 22% 6.7 mph N10.8 kmh N 15.0 mph24.1 kmh 29.47 in998.0 mb 0.00 in0.0 mm 0.00 in0.0 mm 0.00 in0.0 mm
02:05 PM 77.0°F25.0°C 33.9°F1.1°C 21% 8.3 mph NW13.4 kmh NW 15.0 mph24.1 kmh 29.46 in997.6 mb 0.00 in0.0 mm 0.00 in0.0 mm 0.00 in0.0 mm
02:10 PM 77.0°F25.0°C 33.5°F0.8°C 20% 5.8 mph NNW9.3 kmh NNW 12.3 mph19.8 kmh 29.46 in997.6 mb 0.00 in0.0 mm 0.00 in0.0 mm 0.00 in0.0 mm
02:15 PM 77.2°F25.1°C 34.0°F1.1°C 21% 5.9 mph NW9.5 kmh NW 19.9 mph32.0 kmh 29.46 in997.6 mb 0.00 in0.0 mm 0.00 in0.0 mm 0.00 in0.0 mm
02:20 PM 77.1°F25.1°C 34.2°F1.2°C 21% 7.9 mph NW12.7 kmh NW 12.3 mph19.8 kmh 29.46 in997.6 mb 0.00 in0.0 mm 0.00 in0.0 mm 0.00 in0.0 mm
02:25 PM 77.0°F25.0°C 34.1°F1.2°C 21% 2.7 mph NW4.3 kmh NW 7.4 mph11.9 kmh 29.46 in997.6 mb 0.00 in0.0 mm 0.00 in0.0 mm 0.00 in0.0 mm
02:30 PM 77.2°F25.1°C 33.8°F1.0°C 21% 6.1 mph NW9.8 kmh NW 9.8 mph15.8 kmh 29.46 in997.6 mb 0.00 in0.0 mm 0.00 in0.0 mm 0.00 in0.0 mm
02:35 PM 77.2°F25.1°C 34.4°F1.3°C 21% 6.8 mph NNW10.9 kmh NNW 15.0 mph24.1 kmh 29.46 in997.6 mb 0.00 in0.0 mm 0.00 in0.0 mm 0.00 in0.0 mm
02:40 PM 77.2°F25.1°C 35.4°F1.9°C 22% 6.6 mph NW10.6 kmh NW 9.8 mph15.8 kmh 29.46 in997.6 mb 0.00 in0.0 mm 0.00 in0.0 mm 0.00 in0.0 mm
02:45 PM 77.2°F25.1°C 34.5°F1.4°C 21% 4.5 mph NW7.2 kmh NW 12.3 mph19.8 kmh 29.46 in997.6 mb 0.00 in0.0 mm 0.00 in0.0 mm 0.00 in0.0 mm
02:50 PM 77.4°F25.2°C 33.4°F0.8°C 20% 4.7 mph N7.6 kmh N 9.8 mph15.8 kmh 29.46 in997.6 mb 0.00 in0.0 mm 0.00 in0.0 mm 0.00 in0.0 mm
02:55 PM 77.5°F25.3°C 33.3°F0.7°C 20% 6.1 mph NW9.8 kmh NW 9.8 mph15.8 kmh 29.46 in997.6 mb 0.00 in0.0 mm 0.00 in0.0 mm 0.00 in0.0 mm
03:00 PM 77.5°F25.3°C 33.7°F0.9°C 20% 6.4 mph NNW10.3 kmh NNW 12.3 mph19.8 kmh 29.46 in997.6 mb 0.00 in0.0 mm 0.00 in0.0 mm 0.00 in0.0 mm
03:05 PM 77.5°F25.3°C 33.7°F0.9°C 20% 5.8 mph NNW9.3 kmh NNW 12.3 mph19.8 kmh 29.46 in997.6 mb 0.00 in0.0 mm 0.00 in0.0 mm 0.00 in0.0 mm
03:10 PM 77.5°F25.3°C 33.3°F0.7°C 20% 6.5 mph N10.5 kmh N 15.0 mph24.1 kmh 29.46 in997.6 mb 0.00 in0.0 mm 0.00 in0.0 mm 0.00 in0.0 mm
03:15 PM 77.5°F25.3°C 33.3°F0.7°C 20% 5.0 mph N8.0 kmh N 7.4 mph11.9 kmh 29.46 in997.6 mb 0.00 in0.0 mm 0.00 in0.0 mm 0.00 in0.0 mm
03:20 PM 77.5°F25.3°C 33.3°F0.7°C 20% 7.2 mph NNW11.6 kmh NNW 15.0 mph24.1 kmh 29.46 in997.6 mb 0.00 in0.0 mm 0.00 in0.0 mm 0.00 in0.0 mm
03:25 PM 77.5°F25.3°C 33.0°F0.6°C 20% 5.3 mph NNW8.5 kmh NNW 9.8 mph15.8 kmh 29.45 in997.3 mb 0.00 in0.0 mm 0.00 in0.0 mm 0.00 in0.0 mm
03:30 PM 77.5°F25.3°C 31.7°F-0.2°C 19% 8.4 mph N13.5 kmh N 15.0 mph24.1 kmh 29.46 in997.6 mb 0.00 in0.0 mm 0.00 in0.0 mm 0.00 in0.0 mm
03:35 PM 77.5°F25.3°C 27.7°F-2.4°C 16% 6.5 mph NNW10.5 kmh NNW 12.3 mph19.8 kmh 29.46 in997.6 mb 0.00 in0.0 mm 0.00 in0.0 mm 0.00 in0.0 mm
03:40 PM 77.5°F25.3°C 28.5°F-1.9°C 16% 7.9 mph NNW12.7 kmh NNW 12.3 mph19.8 kmh 29.45 in997.3 mb 0.00 in0.0 mm 0.00 in0.0 mm 0.00 in0.0 mm
03:45 PM 77.5°F25.3°C 28.7°F-1.8°C 17% 8.2 mph N13.2 kmh N 15.0 mph24.1 kmh 29.45 in997.3 mb 0.00 in0.0 mm 0.00 in0.0 mm 0.00 in0.0 mm
03:50 PM 77.5°F25.3°C 30.1°F-1.1°C 18% 4.0 mph N6.4 kmh N 9.8 mph15.8 kmh 29.45 in997.3 mb 0.00 in0.0 mm 0.00 in0.0 mm 0.00 in0.0 mm
03:55 PM 77.6°F25.3°C 29.4°F-1.4°C 17% 6.3 mph NNW10.1 kmh NNW 12.3 mph19.8 kmh 29.45 in997.3 mb 0.00 in0.0 mm 0.00 in0.0 mm 0.00 in0.0 mm
04:00 PM 77.8°F25.4°C 25.6°F-3.6°C 14% 7.5 mph N12.1 kmh N 12.3 mph19.8 kmh 29.46 in997.6 mb 0.00 in0.0 mm 0.00 in0.0 mm 0.00 in0.0 mm
04:05 PM 77.9°F25.5°C 24.9°F-3.9°C 14% 4.9 mph NW7.9 kmh NW 9.8 mph15.8 kmh 29.46 in997.6 mb 0.00 in0.0 mm 0.00 in0.0 mm 0.00 in0.0 mm
04:10 PM 77.9°F25.5°C 24.8°F-4.0°C 14% 6.4 mph NW10.3 kmh NW 15.0 mph24.1 kmh 29.45 in997.3 mb 0.00 in0.0 mm 0.00 in0.0 mm 0.00 in0.0 mm
04:15 PM 77.9°F25.5°C 26.5°F-3.1°C 15% 7.6 mph NNW12.2 kmh NNW 19.9 mph32.0 kmh 29.45 in997.3 mb 0.00 in0.0 mm 0.00 in0.0 mm 0.00 in0.0 mm
04:20 PM 77.9°F25.5°C 24.8°F-4.0°C 14% 7.3 mph N11.7 kmh N 17.4 mph28.0 kmh 29.45 in997.3 mb 0.00 in0.0 mm 0.00 in0.0 mm 0.00 in0.0 mm
04:25 PM 77.8°F25.4°C 24.2°F-4.3°C 14% 6.9 mph N11.1 kmh N 12.3 mph19.8 kmh 29.45 in997.3 mb 0.00 in0.0 mm 0.00 in0.0 mm 0.00 in0.0 mm
04:30 PM 77.6°F25.3°C 24.6°F-4.1°C 14% 3.9 mph NNE6.3 kmh NNE 9.8 mph15.8 kmh 29.45 in997.3 mb 0.00 in0.0 mm 0.00 in0.0 mm 0.00 in0.0 mm
04:35 PM 77.6°F25.3°C 21.0°F-6.1°C 12% 5.1 mph N8.2 kmh N 12.3 mph19.8 kmh 29.46 in997.6 mb 0.00 in0.0 mm 0.00 in0.0 mm 0.00 in0.0 mm
04:40 PM 77.7°F25.4°C 20.2°F-6.6°C 12% 7.1 mph N11.4 kmh N 19.9 mph32.0 kmh 29.46 in997.6 mb 0.00 in0.0 mm 0.00 in0.0 mm 0.00 in0.0 mm
04:45 PM 77.7°F25.4°C 19.0°F-7.2°C 11% 4.4 mph NNE7.1 kmh NNE 7.4 mph11.9 kmh 29.46 in997.6 mb 0.00 in0.0 mm 0.00 in0.0 mm 0.00 in0.0 mm
04:50 PM 77.8°F25.4°C 21.7°F-5.7°C 12% 3.2 mph NNE5.1 kmh NNE 9.8 mph15.8 kmh 29.46 in997.6 mb 0.00 in0.0 mm 0.00 in0.0 mm 0.00 in0.0 mm
04:55 PM 78.1°F25.6°C 28.8°F-1.8°C 16% 3.2 mph NW5.1 kmh NW 7.4 mph11.9 kmh 29.46 in997.6 mb 0.00 in0.0 mm 0.00 in0.0 mm 0.00 in0.0 mm
05:00 PM 78.3°F25.7°C 32.8°F0.4°C 19% 5.0 mph NNW8.0 kmh NNW 12.3 mph19.8 kmh 29.46 in997.6 mb 0.00 in0.0 mm 0.00 in0.0 mm 0.00 in0.0 mm
05:05 PM 78.2°F25.7°C 33.0°F0.6°C 19% 5.3 mph N8.5 kmh N 15.0 mph24.1 kmh 29.46 in997.6 mb 0.00 in0.0 mm 0.00 in0.0 mm 0.00 in0.0 mm
05:10 PM 78.1°F25.6°C 33.5°F0.8°C 20% 4.8 mph N7.7 kmh N 7.4 mph11.9 kmh 29.46 in997.6 mb 0.00 in0.0 mm 0.00 in0.0 mm 0.00 in0.0 mm
05:15 PM 77.9°F25.5°C 29.5°F-1.4°C 17% 5.0 mph N8.0 kmh N 7.4 mph11.9 kmh 29.46 in997.6 mb 0.00 in0.0 mm 0.00 in0.0 mm 0.00 in0.0 mm
05:20 PM 77.8°F25.4°C 28.7°F-1.8°C 16% 6.6 mph N10.6 kmh N 9.8 mph15.8 kmh 29.46 in997.6 mb 0.00 in0.0 mm 0.00 in0.0 mm 0.00 in0.0 mm
05:25 PM 77.5°F25.3°C 27.0°F-2.8°C 16% 3.5 mph NNW5.6 kmh NNW 7.4 mph11.9 kmh 29.46 in997.6 mb 0.00 in0.0 mm 0.00 in0.0 mm 0.00 in0.0 mm
05:30 PM 77.5°F25.3°C 24.8°F-4.0°C 14% 3.8 mph NW6.1 kmh NW 9.8 mph15.8 kmh 29.47 in998.0 mb 0.00 in0.0 mm 0.00 in0.0 mm 0.00 in0.0 mm
05:35 PM 77.4°F25.2°C 24.4°F-4.2°C 14% 3.8 mph NW6.1 kmh NW 9.8 mph15.8 kmh 29.47 in998.0 mb 0.00 in0.0 mm 0.00 in0.0 mm 0.00 in0.0 mm
05:40 PM 77.4°F25.2°C 26.9°F-2.8°C 16% 6.1 mph NNW9.8 kmh NNW 15.0 mph24.1 kmh 29.47 in998.0 mb 0.00 in0.0 mm 0.00 in0.0 mm 0.00 in0.0 mm
05:45 PM 77.4°F25.2°C 24.7°F-4.1°C 14% 5.5 mph NNW8.9 kmh NNW 15.0 mph24.1 kmh 29.47 in998.0 mb 0.00 in0.0 mm 0.00 in0.0 mm 0.00 in0.0 mm
05:50 PM 77.4°F25.2°C 24.5°F-4.2°C 14% 7.1 mph NNW11.4 kmh NNW 12.3 mph19.8 kmh 29.47 in998.0 mb 0.00 in0.0 mm 0.00 in0.0 mm 0.00 in0.0 mm
05:55 PM 77.3°F25.2°C 24.9°F-3.9°C 14% 3.9 mph NNW6.3 kmh NNW 7.4 mph11.9 kmh 29.47 in998.0 mb 0.00 in0.0 mm 0.00 in0.0 mm 0.00 in0.0 mm
06:00 PM 77.2°F25.1°C 25.1°F-3.8°C 14% 6.5 mph NW10.5 kmh NW 12.3 mph19.8 kmh 29.47 in998.0 mb 0.00 in0.0 mm 0.00 in0.0 mm 0.00 in0.0 mm
06:05 PM 77.2°F25.1°C 24.6°F-4.1°C 14% 6.1 mph NNE9.8 kmh NNE 12.3 mph19.8 kmh 29.47 in998.0 mb 0.00 in0.0 mm 0.00 in0.0 mm 0.00 in0.0 mm
06:10 PM 77.2°F25.1°C 24.3°F-4.3°C 14% 4.5 mph N7.2 kmh N 7.4 mph11.9 kmh 29.48 in998.3 mb 0.00 in0.0 mm 0.00 in0.0 mm 0.00 in0.0 mm
06:15 PM 77.2°F25.1°C 25.1°F-3.8°C 14% 5.1 mph NNW8.2 kmh NNW 9.8 mph15.8 kmh 29.48 in998.3 mb 0.00 in0.0 mm 0.00 in0.0 mm 0.00 in0.0 mm
06:20 PM 77.0°F25.0°C 24.7°F-4.1°C 14% 4.5 mph NW7.2 kmh NW 12.3 mph19.8 kmh 29.48 in998.3 mb 0.00 in0.0 mm 0.00 in0.0 mm 0.00 in0.0 mm
06:25 PM 77.0°F25.0°C 24.7°F-4.1°C 14% 4.6 mph NNW7.4 kmh NNW 9.8 mph15.8 kmh 29.48 in998.3 mb 0.00 in0.0 mm 0.00 in0.0 mm 0.00 in0.0 mm
06:30 PM 77.0°F25.0°C 27.3°F-2.6°C 16% 5.6 mph NW9.0 kmh NW 9.8 mph15.8 kmh 29.48 in998.3 mb 0.00 in0.0 mm 0.00 in0.0 mm 0.00 in0.0 mm
06:35 PM 77.0°F25.0°C 27.9°F-2.3°C 16% 4.2 mph NW6.8 kmh NW 9.8 mph15.8 kmh 29.48 in998.3 mb 0.00 in0.0 mm 0.00 in0.0 mm 0.00 in0.0 mm
06:40 PM 77.0°F25.0°C 28.6°F-1.9°C 17% 5.2 mph NW8.4 kmh NW 12.3 mph19.8 kmh 29.48 in998.3 mb 0.00 in0.0 mm 0.00 in0.0 mm 0.00 in0.0 mm
06:45 PM 76.8°F24.9°C 28.4°F-2.0°C 17% 4.0 mph N6.4 kmh N 7.4 mph11.9 kmh 29.48 in998.3 mb 0.00 in0.0 mm 0.00 in0.0 mm 0.00 in0.0 mm
06:50 PM 76.8°F24.9°C 27.7°F-2.4°C 16% 7.6 mph NNW12.2 kmh NNW 12.3 mph19.8 kmh 29.48 in998.3 mb 0.00 in0.0 mm 0.00 in0.0 mm 0.00 in0.0 mm
06:55 PM 76.7°F24.8°C 28.6°F-1.9°C 17% 2.9 mph N4.7 kmh N 7.4 mph11.9 kmh 29.49 in998.6 mb 0.00 in0.0 mm 0.00 in0.0 mm 0.00 in0.0 mm
07:00 PM 76.6°F24.8°C 30.1°F-1.1°C 18% 2.8 mph NNW4.5 kmh NNW 7.4 mph11.9 kmh 29.49 in998.6 mb 0.00 in0.0 mm 0.00 in0.0 mm 0.00 in0.0 mm
07:05 PM 76.6°F24.8°C 30.3°F-0.9°C 18% 4.0 mph NNW6.4 kmh NNW 9.8 mph15.8 kmh 29.49 in998.6 mb 0.00 in0.0 mm 0.00 in0.0 mm 0.00 in0.0 mm
07:10 PM 76.5°F24.7°C 29.6°F-1.3°C 18% 2.9 mph NNE4.7 kmh NNE 4.9 mph7.9 kmh 29.49 in998.6 mb 0.00 in0.0 mm 0.00 in0.0 mm 0.00 in0.0 mm
07:15 PM 76.3°F24.6°C 31.0°F-0.6°C 19% 2.9 mph N4.7 kmh N 7.4 mph11.9 kmh 29.49 in998.6 mb 0.00 in0.0 mm 0.00 in0.0 mm 0.00 in0.0 mm
07:20 PM 76.2°F24.6°C 31.1°F-0.5°C 19% 2.6 mph N4.2 kmh N 7.4 mph11.9 kmh 29.49 in998.6 mb 0.00 in0.0 mm 0.00 in0.0 mm 0.00 in0.0 mm
07:25 PM 75.9°F24.4°C 32.5°F0.3°C 20% 1.9 mph N3.1 kmh N 7.4 mph11.9 kmh 29.49 in998.6 mb 0.00 in0.0 mm 0.00 in0.0 mm 0.00 in0.0 mm
07:30 PM 75.7°F24.3°C 34.1°F1.2°C 22% 2.2 mph N3.5 kmh N 4.9 mph7.9 kmh 29.49 in998.6 mb 0.00 in0.0 mm 0.00 in0.0 mm 0.00 in0.0 mm
07:35 PM 75.3°F24.1°C 33.8°F1.0°C 22% 1.7 mph NNW2.7 kmh NNW 2.5 mph4.0 kmh 29.49 in998.6 mb 0.00 in0.0 mm 0.00 in0.0 mm 0.00 in0.0 mm
07:40 PM 75.0°F23.9°C 33.6°F0.9°C 22% 2.1 mph N3.4 kmh N 4.9 mph7.9 kmh 29.48 in998.3 mb 0.00 in0.0 mm 0.00 in0.0 mm 0.00 in0.0 mm
07:45 PM 74.8°F23.8°C 33.4°F0.8°C 22% Calm Calm 2.5 mph4.0 kmh 29.49 in998.6 mb 0.00 in0.0 mm 0.00 in0.0 mm 0.00 in0.0 mm
07:50 PM 74.6°F23.7°C 34.3°F1.3°C 23% 0.3 mph NW0.5 kmh NW 2.5 mph4.0 kmh 29.49 in998.6 mb 0.00 in0.0 mm 0.00 in0.0 mm 0.00 in0.0 mm
07:55 PM 74.2°F23.4°C 33.7°F0.9°C 23% 0.6 mph NNW1.0 kmh NNW 4.9 mph7.9 kmh 29.49 in998.6 mb 0.00 in0.0 mm 0.00 in0.0 mm 0.00 in0.0 mm
08:00 PM 74.0°F23.3°C 32.7°F0.4°C 22% Calm Calm 2.5 mph4.0 kmh 29.49 in998.6 mb 0.00 in0.0 mm 0.00 in0.0 mm 0.00 in0.0 mm
08:05 PM 73.6°F23.1°C 33.0°F0.6°C 22% 1.4 mph NNW2.3 kmh NNW 4.9 mph7.9 kmh 29.49 in998.6 mb 0.00 in0.0 mm 0.00 in0.0 mm 0.00 in0.0 mm
08:10 PM 73.3°F22.9°C 33.2°F0.7°C 23% Calm Calm -- 29.50 in999.0 mb 0.00 in0.0 mm 0.00 in0.0 mm 0.00 in0.0 mm
08:15 PM 72.9°F22.7°C 33.1°F0.6°C 23% 0.8 mph NW1.3 kmh NW 7.4 mph11.9 kmh 29.50 in999.0 mb 0.00 in0.0 mm 0.00 in0.0 mm 0.00 in0.0 mm
08:20 PM 72.3°F22.4°C 32.8°F0.4°C 23% 1.0 mph NNW1.6 kmh NNW 4.9 mph7.9 kmh 29.50 in999.0 mb 0.00 in0.0 mm 0.00 in0.0 mm 0.00 in0.0 mm
08:25 PM 71.8°F22.1°C 33.3°F0.7°C 24% 0.7 mph NNW1.1 kmh NNW 2.5 mph4.0 kmh 29.49 in998.6 mb 0.00 in0.0 mm 0.00 in0.0 mm 0.00 in0.0 mm
08:30 PM 71.3°F21.8°C 33.6°F0.9°C 25% 1.3 mph NNW2.1 kmh NNW 7.4 mph11.9 kmh 29.50 in999.0 mb 0.00 in0.0 mm 0.00 in0.0 mm 0.00 in0.0 mm
08:35 PM 70.9°F21.6°C 33.5°F0.8°C 25% 0.2 mph NW0.3 kmh NW 2.5 mph4.0 kmh 29.50 in999.0 mb 0.00 in0.0 mm 0.00 in0.0 mm 0.00 in0.0 mm
08:40 PM 70.4°F21.3°C 34.2°F1.2°C 26% 0.2 mph NW0.3 kmh NW 2.5 mph4.0 kmh 29.50 in999.0 mb 0.00 in0.0 mm 0.00 in0.0 mm 0.00 in0.0 mm
08:45 PM 69.9°F21.1°C 34.4°F1.3°C 27% 1.3 mph NW2.1 kmh NW 4.9 mph7.9 kmh 29.51 in999.3 mb 0.00 in0.0 mm 0.00 in0.0 mm 0.00 in0.0 mm
08:50 PM 69.7°F20.9°C 35.3°F1.8°C 28% 0.1 mph NW0.2 kmh NW 2.5 mph4.0 kmh 29.51 in999.3 mb 0.00 in0.0 mm 0.00 in0.0 mm 0.00 in0.0 mm
08:55 PM 69.5°F20.8°C 36.7°F2.6°C 30% 0.4 mph NW0.6 kmh NW 4.9 mph7.9 kmh 29.52 in999.7 mb 0.00 in0.0 mm 0.00 in0.0 mm 0.00 in0.0 mm
09:00 PM 69.3°F20.7°C 36.5°F2.5°C 30% 1.0 mph NW1.6 kmh NW 4.9 mph7.9 kmh 29.52 in999.7 mb 0.00 in0.0 mm 0.00 in0.0 mm 0.00 in0.0 mm
09:05 PM 69.1°F20.6°C 36.6°F2.6°C 30% Calm Calm -- 29.52 in999.7 mb 0.00 in0.0 mm 0.00 in0.0 mm 0.00 in0.0 mm
09:10 PM 68.9°F20.5°C 37.0°F2.8°C 31% 0.3 mph NW0.5 kmh NW 2.5 mph4.0 kmh 29.52 in999.7 mb 0.00 in0.0 mm 0.00 in0.0 mm 0.00 in0.0 mm
09:15 PM 68.8°F20.4°C 37.6°F3.1°C 32% 0.2 mph NNW0.3 kmh NNW 2.5 mph4.0 kmh 29.52 in999.7 mb 0.00 in0.0 mm 0.00 in0.0 mm 0.00 in0.0 mm
09:20 PM 68.5°F20.3°C 38.2°F3.4°C 33% 0.8 mph N1.3 kmh N 4.9 mph7.9 kmh 29.52 in999.7 mb 0.00 in0.0 mm 0.00 in0.0 mm 0.00 in0.0 mm
09:25 PM 68.1°F20.1°C 37.4°F3.0°C 32% 1.1 mph NNW1.8 kmh NNW 4.9 mph7.9 kmh 29.53 in1000.0 mb 0.00 in0.0 mm 0.00 in0.0 mm 0.00 in0.0 mm
09:30 PM 67.7°F19.8°C 36.8°F2.7°C 32% 0.2 mph NNW0.3 kmh NNW 2.5 mph4.0 kmh 29.53 in1000.0 mb 0.00 in0.0 mm 0.00 in0.0 mm 0.00 in0.0 mm
09:35 PM 67.5°F19.7°C 36.6°F2.6°C 32% 0.4 mph NNW0.6 kmh NNW 2.5 mph4.0 kmh 29.53 in1000.0 mb 0.00 in0.0 mm 0.00 in0.0 mm 0.00 in0.0 mm
09:40 PM 67.2°F19.6°C 36.3°F2.4°C 32% 0.9 mph N1.4 kmh N 4.9 mph7.9 kmh 29.53 in1000.0 mb 0.00 in0.0 mm 0.00 in0.0 mm 0.00 in0.0 mm
09:45 PM 66.9°F19.4°C 36.9°F2.7°C 33% 0.5 mph WNW0.8 kmh WNW 2.5 mph4.0 kmh 29.54 in1000.3 mb 0.00 in0.0 mm 0.00 in0.0 mm 0.00 in0.0 mm
09:50 PM 66.7°F19.3°C 37.0°F2.8°C 33% 0.2 mph WNW0.3 kmh WNW 2.5 mph4.0 kmh 29.54 in1000.3 mb 0.00 in0.0 mm 0.00 in0.0 mm 0.00 in0.0 mm
09:55 PM 66.6°F19.2°C 37.2°F2.9°C 34% 0.4 mph NW0.6 kmh NW 2.5 mph4.0 kmh 29.54 in1000.3 mb 0.00 in0.0 mm 0.00 in0.0 mm 0.00 in0.0 mm
10:00 PM 66.3°F19.1°C 36.9°F2.7°C 34% 0.9 mph NNW1.4 kmh NNW 4.9 mph7.9 kmh 29.54 in1000.3 mb 0.00 in0.0 mm 0.00 in0.0 mm 0.00 in0.0 mm
10:05 PM 66.1°F18.9°C 36.4°F2.4°C 33% 1.9 mph NW3.1 kmh NW 4.9 mph7.9 kmh 29.54 in1000.3 mb 0.00 in0.0 mm 0.00 in0.0 mm 0.00 in0.0 mm
10:10 PM 66.0°F18.9°C 36.1°F2.3°C 33% 0.7 mph N1.1 kmh N 4.9 mph7.9 kmh 29.54 in1000.3 mb 0.00 in0.0 mm 0.00 in0.0 mm 0.00 in0.0 mm
10:15 PM 66.0°F18.9°C 36.1°F2.3°C 33% 0.8 mph NW1.3 kmh NW 4.9 mph7.9 kmh 29.54 in1000.3 mb 0.00 in0.0 mm 0.00 in0.0 mm 0.00 in0.0 mm
10:20 PM 66.0°F18.9°C 36.5°F2.5°C 34% 0.6 mph NW1.0 kmh NW 2.5 mph4.0 kmh 29.55 in1000.7 mb 0.00 in0.0 mm 0.00 in0.0 mm 0.00 in0.0 mm
10:25 PM 66.0°F18.9°C 36.8°F2.7°C 34% 1.2 mph N1.9 kmh N 4.9 mph7.9 kmh 29.55 in1000.7 mb 0.00 in0.0 mm 0.00 in0.0 mm 0.00 in0.0 mm
10:30 PM 65.8°F18.8°C 37.0°F2.8°C 34% 1.3 mph N2.1 kmh N 4.9 mph7.9 kmh 29.55 in1000.7 mb 0.00 in0.0 mm 0.00 in0.0 mm 0.00 in0.0 mm
10:35 PM 65.8°F18.8°C 37.4°F3.0°C 35% 0.9 mph NW1.4 kmh NW 4.9 mph7.9 kmh 29.55 in1000.7 mb 0.00 in0.0 mm 0.00 in0.0 mm 0.00 in0.0 mm
10:40 PM 65.6°F18.7°C 37.5°F3.1°C 35% 0.9 mph NW1.4 kmh NW 4.9 mph7.9 kmh 29.55 in1000.7 mb 0.00 in0.0 mm 0.00 in0.0 mm 0.00 in0.0 mm
10:45 PM 65.4°F18.6°C 37.7°F3.2°C 36% 1.7 mph NNW2.7 kmh NNW 4.9 mph7.9 kmh 29.56 in1001.0 mb 0.00 in0.0 mm 0.00 in0.0 mm 0.00 in0.0 mm
10:50 PM 65.1°F18.4°C 37.6°F3.1°C 36% 1.5 mph NW2.4 kmh NW 4.9 mph7.9 kmh 29.56 in1001.0 mb 0.00 in0.0 mm 0.00 in0.0 mm 0.00 in0.0 mm
10:55 PM 64.9°F18.3°C 38.0°F3.3°C 37% Calm Calm -- 29.56 in1001.0 mb 0.00 in0.0 mm 0.00 in0.0 mm 0.00 in0.0 mm
11:00 PM 64.7°F18.2°C 38.1°F3.4°C 37% 1.0 mph NW1.6 kmh NW 2.5 mph4.0 kmh 29.56 in1001.0 mb 0.00 in0.0 mm 0.00 in0.0 mm 0.00 in0.0 mm
11:05 PM 64.4°F18.0°C 38.2°F3.4°C 38% 0.8 mph NW1.3 kmh NW 4.9 mph7.9 kmh 29.56 in1001.0 mb 0.00 in0.0 mm 0.00 in0.0 mm 0.00 in0.0 mm
11:10 PM 64.1°F17.8°C 38.0°F3.3°C 38% 0.9 mph NNW1.4 kmh NNW 4.9 mph7.9 kmh 29.56 in1001.0 mb 0.00 in0.0 mm 0.00 in0.0 mm 0.00 in0.0 mm
11:15 PM 64.0°F17.8°C 37.9°F3.3°C 38% 1.1 mph N1.8 kmh N 2.5 mph4.0 kmh 29.56 in1001.0 mb 0.00 in0.0 mm 0.00 in0.0 mm 0.00 in0.0 mm
11:20 PM 63.9°F17.7°C 37.8°F3.2°C 38% 1.0 mph N1.6 kmh N 2.5 mph4.0 kmh 29.57 in1001.4 mb 0.00 in0.0 mm 0.00 in0.0 mm 0.00 in0.0 mm
11:25 PM 63.7°F17.6°C 37.6°F3.1°C 38% 0.9 mph WNW1.4 kmh WNW 2.5 mph4.0 kmh 29.56 in1001.0 mb 0.00 in0.0 mm 0.00 in0.0 mm 0.00 in0.0 mm
11:30 PM 63.5°F17.5°C 37.4°F3.0°C 38% 1.1 mph NW1.8 kmh NW 4.9 mph7.9 kmh 29.57 in1001.4 mb 0.00 in0.0 mm 0.00 in0.0 mm 0.00 in0.0 mm
11:35 PM 63.4°F17.4°C 37.5°F3.1°C 38% 1.4 mph NW2.3 kmh NW 4.9 mph7.9 kmh 29.57 in1001.4 mb 0.00 in0.0 mm 0.00 in0.0 mm 0.00 in0.0 mm
11:40 PM 63.3°F17.4°C 37.9°F3.3°C 39% 1.1 mph NW1.8 kmh NW 4.9 mph7.9 kmh 29.57 in1001.4 mb 0.00 in0.0 mm 0.00 in0.0 mm 0.00 in0.0 mm
11:45 PM 63.1°F17.3°C 37.7°F3.2°C 39% 1.2 mph NW1.9 kmh NW 4.9 mph7.9 kmh 29.57 in1001.4 mb 0.00 in0.0 mm 0.00 in0.0 mm 0.00 in0.0 mm
11:50 PM 63.1°F17.3°C 37.7°F3.2°C 39% 1.0 mph WNW1.6 kmh WNW 4.9 mph7.9 kmh 29.57 in1001.4 mb 0.00 in0.0 mm 0.00 in0.0 mm 0.00 in0.0 mm
11:55 PM 63.0°F17.2°C 37.7°F3.2°C 39% 0.3 mph NNW0.5 kmh NNW 2.5 mph4.0 kmh 29.57 in1001.4 mb 0.00 in0.0 mm 0.00 in0.0 mm 0.00 in0.0 mm